Time;durP1;ratioP1;P1;durP2;ratioP2;P2;SDS_P1;SDS_P2;PMS_P1;PMS_P2;Temp;Humidity;BMP_temperature;BMP_pressure;BME280_temperature;BME280_humidity;BME280_pressure;Samples;Min_cycle;Max_cycle;Signal;HPM_P1;HPM_P2
2024/01/22 00:00:45;;;;;;;100.37;43.17;;;;;;;;;;5103235;28;20020;-74
2024/01/22 00:03:11;;;;;;;101.87;46.77;;;;;;;;;;5085166;28;20030;-76
2024/01/22 00:05:37;;;;;;;103.20;46.33;;;;;;;;;;5112603;28;20026;-76
2024/01/22 00:08:04;;;;;;;94.23;44.73;;;;;;;;;;5106981;28;20238;-76
2024/01/22 00:10:30;;;;;;;102.10;45.53;;;;;;;;;;5085297;28;20035;-75
2024/01/22 00:12:56;;;;;;;96.20;44.40;;;;;;;;;;5102445;28;20032;-77
2024/01/22 00:15:22;;;;;;;94.53;42.50;;;;;;;;;;5102522;28;20107;-74
2024/01/22 00:17:48;;;;;;;98.13;43.03;;;;;;;;;;5102274;28;20059;-74
2024/01/22 00:20:14;;;;;;;103.43;44.33;;;;;;;;;;5102456;28;20027;-74
2024/01/22 00:22:40;;;;;;;97.73;41.23;;;;;;;;;;5102032;28;20027;-74
2024/01/22 00:25:06;;;;;;;99.33;42.67;;;-3.50;96.90;;;;;;5101875;28;20031;-74
2024/01/22 00:27:32;;;;;;;96.87;43.73;;;;;;;;;;5083676;28;20024;-74
2024/01/22 00:29:58;;;;;;;91.03;40.47;;;;;;;;;;5101775;28;20185;-73
2024/01/22 00:32:24;;;;;;;98.47;41.33;;;;;;;;;;5101259;28;20032;-73
2024/01/22 00:34:50;;;;;;;89.67;40.67;;;;;;;;;;5100454;28;20091;-73
2024/01/22 00:37:16;;;;;;;92.23;39.43;;;;;;;;;;5109218;28;20345;-73
2024/01/22 00:39:42;;;;;;;88.90;39.70;;;;;;;;;;5121505;28;20131;-73
2024/01/22 00:42:08;;;;;;;67.53;32.13;;;;;;;;;;5121882;28;20054;-73
2024/01/22 00:44:35;;;;;;;64.20;31.07;;;;;;;;;;5096845;28;20255;-73
2024/01/22 00:47:01;;;;;;;72.30;31.53;;;;;;;;;;5101110;28;20048;-73
2024/01/22 00:49:27;;;;;;;68.60;30.73;;;;;;;;;;5101343;28;20027;-73
2024/01/22 00:51:53;;;;;;;63.90;29.47;;;;;;;;;;5101015;28;20247;-73
2024/01/22 00:54:19;;;;;;;75.47;32.30;;;;;;;;;;5100103;28;20099;-73
2024/01/22 00:56:45;;;;;;;78.80;33.60;;;;;;;;;;5101170;28;20058;-73
2024/01/22 00:59:11;;;;;;;90.97;38.77;;;;;;;;;;5101170;28;20040;-74
2024/01/22 01:01:37;;;;;;;81.67;34.90;;;;;;;;;;5101182;28;20024;-74
2024/01/22 01:04:03;;;;;;;87.73;38.77;;;;;;;;;;5100970;28;20239;-73
2024/01/22 01:06:29;;;;;;;92.57;39.93;;;;;;;;;;5100762;28;20020;-73
2024/01/22 01:08:55;;;;;;;102.20;43.53;;;;;;;;;;5100815;28;20028;-73
2024/01/22 01:11:21;;;;;;;90.40;40.00;;;;;;;;;;5099938;28;20283;-73
2024/01/22 01:13:47;;;;;;;97.33;42.47;;;;;;;;;;5100958;28;20098;-73
2024/01/22 01:16:13;;;;;;;91.03;42.67;;;;;;;;;;5082728;28;20369;-73
2024/01/22 01:18:39;;;;;;;99.43;42.70;;;;;;;;;;5100672;28;20328;-73
2024/01/22 01:21:05;;;;;;;90.30;42.57;;;;;;;;;;5101025;28;20022;-74
2024/01/22 01:23:31;;;;;;;102.40;42.63;;;;;;;;;;5101271;28;20574;-74
2024/01/22 01:25:57;;;;;;;105.97;42.60;;;;;;;;;;5101070;28;20032;-74
2024/01/22 01:28:23;;;;;;;102.07;43.60;;;;;;;;;;5101335;28;20038;-74
2024/01/22 01:30:49;;;;;;;95.80;39.60;;;;;;;;;;5082500;28;20103;-72
2024/01/22 01:33:15;;;;;;;77.27;35.93;;;;;;;;;;5100488;28;20031;-72
2024/01/22 01:35:43;;;;;;;82.00;37.33;;;;;;;;;;5100339;28;20300;-72
2024/01/22 01:38:09;;;;;;;93.50;39.17;;;-3.80;99.90;;;;;;5103296;28;20080;-72
2024/01/22 01:40:37;;;;;;;72.20;33.00;;;;;;;;;;5086088;28;20047;-72
2024/01/22 01:43:03;;;;;;;58.77;26.40;;;;;;;;;;5104770;28;20099;-72
2024/01/22 01:45:29;;;;;;;56.17;26.67;;;;;;;;;;5104377;28;20028;-72
2024/01/22 01:47:55;;;;;;;82.13;37.87;;;;;;;;;;5104577;28;20028;-73
2024/01/22 01:50:21;;;;;;;65.90;29.63;;;;;;;;;;5104494;28;20024;-73
2024/01/22 01:52:47;;;;;;;63.27;27.27;;;;;;;;;;5086196;28;20028;-73
2024/01/22 01:55:13;;;;;;;74.10;32.33;;;;;;;;;;5085930;28;20028;-72
2024/01/22 01:57:39;;;;;;;67.63;31.43;;;-4.00;99.00;;;;;;5104001;28;20039;-72
2024/01/22 02:00:12;;;;;;;67.33;29.50;;;-3.50;99.70;;;;;;5104209;28;20367;-73
2024/01/22 02:02:39;;;;;;;73.60;32.10;;;;;;;;;;5104331;28;20331;-73
2024/01/22 02:05:06;;;;;;;67.50;29.67;;;-4.00;98.70;;;;;;5104508;28;20024;-72
2024/01/22 02:07:32;;;;;;;58.87;26.63;;;;;;;;;;5104609;28;20032;-72
2024/01/22 02:09:58;;;;;;;61.37;25.57;;;;;;;;;;5104576;28;20028;-72
2024/01/22 02:12:24;;;;;;;57.00;25.27;;;;;;;;;;5104554;28;20034;-71
2024/01/22 02:14:50;;;;;;;53.43;23.63;;;;;;;;;;5104630;28;20024;-72
2024/01/22 02:17:16;;;;;;;57.03;26.63;;;;;;;;;;5104560;28;20020;-72
2024/01/22 02:19:43;;;;;;;61.57;26.40;;;;;;;;;;5086539;28;20036;-72
2024/01/22 02:22:09;;;;;;;84.00;37.77;;;;;;;;;;5104097;28;20032;-72
2024/01/22 02:24:34;;;;;;;96.53;41.77;;;-4.00;99.90;;;;;;5104120;28;20016;-74
2024/01/22 02:27:00;;;;;;;97.47;44.13;;;;;;;;;;5085732;28;20069;-75
2024/01/22 02:29:26;;;;;;;93.17;41.33;;;;;;;;;;5104477;28;20026;-73
2024/01/22 02:31:52;;;;;;;94.03;42.67;;;;;;;;;;5085986;28;20023;-74
2024/01/22 02:34:19;;;;;;;106.73;45.57;;;;;;;;;;5090286;28;20032;-74
2024/01/22 02:36:46;;;;;;;83.03;38.13;;;;;;;;;;5083912;28;20314;-74
2024/01/22 02:39:12;;;;;;;111.00;46.10;;;-4.10;99.90;;;;;;5083597;28;20096;-73
2024/01/22 02:41:39;;;;;;;102.53;42.93;;;;;;;;;;5083940;28;20015;-74
2024/01/22 02:44:05;;;;;;;105.03;42.63;;;;;;;;;;5083588;28;20217;-73
2024/01/22 02:46:31;;;;;;;103.00;45.30;;;;;;;;;;5065079;28;20024;-73
2024/01/22 02:48:58;;;;;;;102.57;45.63;;;;;;;;;;5064468;28;20217;-72
2024/01/22 02:51:24;;;;;;;106.60;44.90;;;;;;;;;;5083432;28;20073;-72
2024/01/22 02:53:50;;;;;;;106.00;46.80;;;-4.20;99.30;;;;;;5103079;28;20074;-71
2024/01/22 02:56:20;;;;;;;105.53;47.10;;;-4.20;99.10;;;;;;5103242;28;20016;-71
2024/01/22 02:58:46;;;;;;;100.10;44.23;;;;;;;;;;5103023;28;20035;-73
2024/01/22 03:01:12;;;;;;;99.40;41.53;;;;;;;;;;5084751;28;20028;-72
2024/01/22 03:03:40;;;;;;;101.17;43.10;;;;;;;;;;5103069;28;20035;-72
2024/01/22 03:06:07;;;;;;;96.03;39.93;;;;;;;;;;5102895;28;20043;-72
2024/01/22 03:08:33;;;;;;;91.03;40.80;;;;;;;;;;5102935;28;20028;-73
2024/01/22 03:11:00;;;;;;;94.83;40.93;;;;;;;;;;5102782;28;20028;-72
2024/01/22 03:13:26;;;;;;;89.87;39.57;;;;;;;;;;5102741;28;20049;-72
2024/01/22 03:15:52;;;;;;;84.03;38.03;;;;;;;;;;5102696;28;20028;-72
2024/01/22 03:18:18;;;;;;;81.97;37.87;;;;;;;;;;5102429;28;20032;-72
2024/01/22 03:20:44;;;;;;;87.17;39.27;;;;;;;;;;5102503;28;20232;-72
2024/01/22 03:23:10;;;;;;;81.17;36.77;;;;;;;;;;5102520;28;20040;-72
2024/01/22 03:25:36;;;;;;;74.53;35.37;;;;;;;;;;5102550;28;20109;-72
2024/01/22 03:28:02;;;;;;;81.17;36.27;;;;;;;;;;5102220;28;20209;-72
2024/01/22 03:30:28;;;;;;;96.30;40.17;;;;;;;;;;5102405;28;20300;-72
2024/01/22 03:32:54;;;;;;;86.50;38.93;;;;;;;;;;5102637;28;20032;-76
2024/01/22 03:35:20;;;;;;;92.00;39.97;;;;;;;;;;5102908;28;20024;-76
2024/01/22 03:37:46;;;;;;;85.60;38.37;;;-4.70;99.90;;;;;;5084625;28;20055;-76
2024/01/22 03:40:12;;;;;;;86.93;38.73;;;;;;;;;;5102350;28;20260;-73
2024/01/22 03:42:38;;;;;;;86.83;38.20;;;;;;;;;;5101996;28;20089;-72
2024/01/22 03:45:04;;;;;;;97.70;39.10;;;-4.20;99.90;;;;;;5101887;28;20051;-70
2024/01/22 03:47:30;;;;;;;90.93;41.70;;;;;;;;;;5101902;28;20155;-71
2024/01/22 03:49:56;;;;;;;94.03;40.67;;;;;;;;;;5101905;28;20146;-70
2024/01/22 03:52:22;;;;;;;90.67;41.40;;;-4.20;99.90;;;;;;5102049;28;20024;-70
2024/01/22 03:54:48;;;;;;;95.87;40.90;;;-4.40;99.80;;;;;;5101855;28;20379;-71
2024/01/22 03:57:13;;;;;;;87.13;38.20;;;-4.70;99.90;;;;;;5102056;28;20068;-70
2024/01/22 03:59:41;;;;;;;90.80;41.17;;;-4.50;99.90;;;;;;5101476;28;20047;-71
2024/01/22 04:02:07;;;;;;;86.80;38.33;;;;;;;;;;5100718;28;20118;-74
2024/01/22 04:04:33;;;;;;;93.47;40.67;;;;;;;;;;5101872;28;20099;-74
2024/01/22 04:06:59;;;;;;;106.77;42.83;;;;;;;;;;5102017;28;20039;-74
2024/01/22 04:09:25;;;;;;;96.73;41.87;;;;;;;;;;5101851;28;20016;-74
2024/01/22 04:11:51;;;;;;;91.87;40.33;;;;;;;;;;5083920;28;20128;-74
2024/01/22 04:14:17;;;;;;;107.40;43.70;;;;;;;;;;5102003;28;20055;-74
2024/01/22 04:16:44;;;;;;;96.03;43.30;;;-4.50;99.90;;;;;;5096096;28;20020;-77
2024/01/22 04:19:10;;;;;;;95.03;41.73;;;;;;;;;;5082109;28;20123;-73
2024/01/22 04:21:46;;;;;;;96.27;40.97;;;-4.50;99.90;;;;;;5064013;28;20028;-75
2024/01/22 04:24:13;;;;;;;102.43;43.73;;;-4.60;99.90;;;;;;5082071;28;20255;-76
2024/01/22 04:26:39;;;;;;;97.60;42.20;;;;;;;;;;5082082;28;20048;-76
2024/01/22 04:29:04;;;;;;;95.13;39.87;;;-4.60;99.90;;;;;;5081805;28;20055;-74
2024/01/22 04:31:30;;;;;;;87.60;39.30;;;;;;;;;;5080249;28;20029;-74
2024/01/22 04:33:56;;;;;;;94.37;40.60;;;;;;;;;;5081771;28;20118;-76
2024/01/22 04:36:23;;;;;;;88.73;38.93;;;;;;;;;;5063523;28;20024;-74
2024/01/22 04:38:49;;;;;;;94.40;38.77;;;;;;;;;;5063263;28;20545;-74
2024/01/22 04:41:15;;;;;;;86.37;39.43;;;;;;;;;;5081329;28;20043;-74
2024/01/22 04:43:41;;;;;;;79.83;36.27;;;;;;;;;;5081246;28;20035;-74
2024/01/22 04:46:07;;;;;;;97.77;40.83;;;;;;;;;;5081219;28;20030;-77
2024/01/22 04:48:33;;;;;;;83.50;37.90;;;;;;;;;;5081822;28;20036;-79
2024/01/22 04:50:59;;;;;;;94.73;41.03;;;;;;;;;;5092164;28;20213;-74
2024/01/22 04:53:25;;;;;;;82.73;37.67;;;;;;;;;;5122010;28;20020;-74
2024/01/22 04:55:51;;;;;;;88.97;38.20;;;;;;;;;;5121816;28;20082;-75
2024/01/22 04:58:17;;;;;;;88.93;37.70;;;;;;;;;;5121964;28;20431;-74
2024/01/22 05:00:46;;;;;;;87.43;37.30;;;;;;;;;;5121578;28;20216;-73
2024/01/22 05:03:12;;;;;;;53.92;24.00;;;;;;;;;;5121417;28;20376;-74
2024/01/22 05:05:38;;;;;;;49.07;21.73;;;;;;;;;;5121422;28;20086;-73
2024/01/22 05:08:05;;;;;;;44.67;20.80;;;-4.60;99.90;;;;;;5121269;28;20511;-73
2024/01/22 05:10:31;;;;;;;40.23;18.67;;;;;;;;;;5116024;28;20016;-73
2024/01/22 05:12:58;;;;;;;40.20;17.83;;;;;;;;;;5082135;28;20028;-73
2024/01/22 05:15:24;;;;;;;40.77;18.23;;;;;;;;;;5072482;28;20032;-72
2024/01/22 05:17:50;;;;;;;38.83;17.93;;;;;;;;;;5094168;28;20384;-73
2024/01/22 05:20:16;;;;;;;39.37;16.80;;;;;;;;;;5100475;28;20034;-73
2024/01/22 05:22:42;;;;;;;35.90;16.73;;;;;;;;;;5100647;28;20072;-72
2024/01/22 05:25:09;;;;;;;38.37;17.97;;;;;;;;;;5100588;28;20114;-72
2024/01/22 05:27:35;;;;;;;39.03;17.40;;;;;;;;;;5100941;28;20028;-75
2024/01/22 05:30:01;;;;;;;37.17;16.33;;;;;;;;;;5101247;28;20043;-74
2024/01/22 05:32:28;;;;;;;37.50;16.37;;;;;;;;;;5101210;28;20024;-74
2024/01/22 05:34:54;;;;;;;36.87;16.03;;;;;;;;;;5083267;28;20027;-74
2024/01/22 05:37:20;;;;;;;34.30;16.13;;;;;;;;;;5082427;28;20103;-74
2024/01/22 05:39:46;;;;;;;51.60;23.53;;;;;;;;;;5100563;28;20060;-74
2024/01/22 05:42:12;;;;;;;55.27;22.73;;;;;;;;;;5101085;28;20024;-75
2024/01/22 05:44:38;;;;;;;38.43;19.00;;;;;;;;;;5100737;28;20032;-72
2024/01/22 05:47:04;;;;;;;50.00;24.27;;;;;;;;;;5100347;28;20028;-72
2024/01/22 05:49:30;;;;;;;51.27;21.93;;;;;;;;;;5100500;28;20213;-72
2024/01/22 05:51:56;;;;;;;43.57;20.50;;;;;;;;;;5100254;28;20058;-74
2024/01/22 05:54:22;;;;;;;41.97;20.87;;;;;;;;;;5100590;28;20328;-74
2024/01/22 05:56:49;;;;;;;45.10;21.10;;;;;;;;;;5101065;28;20347;-74
2024/01/22 05:59:15;;;;;;;46.03;21.37;;;;;;;;;;5100707;28;20081;-74
2024/01/22 06:01:41;;;;;;;47.80;21.10;;;;;;;;;;5100789;28;20339;-72
2024/01/22 06:04:07;;;;;;;40.47;19.83;;;;;;;;;;5099634;28;20028;-73
2024/01/22 06:06:33;;;;;;;41.03;20.60;;;;;;;;;;5100962;28;20024;-76
2024/01/22 06:09:02;;;;;;;50.33;23.07;;;;;;;;;;5100692;28;20035;-75
2024/01/22 06:11:30;;;;;;;42.15;20.13;;;-3.30;99.90;;;;;;5100816;28;20320;-76
2024/01/22 06:13:56;;;;;;;42.03;20.20;;;;;;;;;;5100552;28;20104;-75
2024/01/22 06:16:22;;;;;;;47.60;21.43;;;;;;;;;;5099942;28;20051;-75
2024/01/22 06:18:48;;;;;;;41.60;20.40;;;;;;;;;;5100798;28;20378;-75
2024/01/22 06:21:14;;;;;;;45.03;20.53;;;;;;;;;;5100581;28;20016;-75
2024/01/22 06:23:44;;;;;;;46.63;20.53;;;;;;;;;;5101050;28;20086;-74
2024/01/22 06:26:10;;;;;;;75.77;32.17;;;;;;;;;;5102947;28;20042;-75
2024/01/22 06:28:38;;;;;;;80.63;36.27;;;;;;;;;;5102964;28;20102;-75
2024/01/22 06:31:04;;;;;;;93.67;39.83;;;;;;;;;;5102863;28;20077;-74
2024/01/22 06:33:30;;;;;;;75.73;35.57;;;;;;;;;;5104167;28;20356;-76
2024/01/22 06:35:56;;;;;;;90.53;35.80;;;;;;;;;;5104268;28;20067;-76
2024/01/22 06:38:22;;;;;;;87.63;39.40;;;;;;;;;;5104175;28;20032;-76
2024/01/22 06:40:48;;;;;;;90.90;39.67;;;;;;;;;;5103665;28;20103;-74
2024/01/22 06:43:14;;;;;;;82.97;36.60;;;;;;;;;;5102797;28;20078;-74
2024/01/22 06:45:40;;;;;;;87.97;37.40;;;;;;;;;;5102826;28;20103;-76
2024/01/22 06:48:06;;;;;;;84.83;37.43;;;-4.20;99.90;;;;;;5104031;28;20096;-76
2024/01/22 06:50:32;;;;;;;87.60;37.67;;;;;;;;;;5099772;28;20212;-77
2024/01/22 06:52:58;;;;;;;86.70;37.10;;;;;;;;;;5094754;28;20021;-76
2024/01/22 06:55:24;;;;;;;83.10;37.87;;;;;;;;;;5094024;28;20024;-77
2024/01/22 06:57:51;;;;;;;90.40;38.87;;;;;;;;;;5083583;28;20036;-77
2024/01/22 07:00:19;;;;;;;81.57;35.70;;;-4.40;99.90;;;;;;5065623;28;20048;-76
2024/01/22 07:02:48;;;;;;;81.50;36.33;;;-4.20;99.40;;;;;;5083963;28;20020;-76
2024/01/22 07:05:14;;;;;;;85.13;36.63;;;;;;;;;;5083888;28;20020;-76
2024/01/22 07:07:41;;;;;;;89.53;39.87;;;;;;;;;;5100562;28;20585;-76
2024/01/22 07:10:10;;;;;;;91.83;37.87;;;-4.30;99.70;;;;;;5103642;28;20028;-76
2024/01/22 07:12:36;;;;;;;96.20;40.38;;;-4.00;99.90;;;;;;5103700;28;20081;-76
2024/01/22 07:15:04;;;;;;;101.07;44.43;;;;;;;;;;5103333;28;20083;-73
2024/01/22 07:17:30;;;;;;;87.50;40.77;;;;;;;;;;5098741;28;20042;-73
2024/01/22 07:19:56;;;;;;;109.83;46.33;;;;;;;;;;5096572;28;20055;-72
2024/01/22 07:22:22;;;;;;;105.00;44.37;;;;;;;;;;5101428;28;20102;-72
2024/01/22 07:24:48;;;;;;;98.00;43.33;;;;;;;;;;5102647;28;20051;-73
2024/01/22 07:27:15;;;;;;;99.47;40.93;;;;;;;;;;5102817;28;20077;-73
2024/01/22 07:29:41;;;;;;;92.30;39.90;;;-4.10;99.90;;;;;;5101245;28;20035;-70
2024/01/22 07:32:07;;;;;;;103.00;43.07;;;;;;;;;;5100477;28;20028;-71
2024/01/22 07:34:33;;;;;;;88.90;37.30;;;;;;;;;;5101575;28;20030;-72
2024/01/22 07:36:59;;;;;;;92.30;38.87;;;;;;;;;;5101005;28;20204;-72
2024/01/22 07:39:25;;;;;;;89.10;37.37;;;;;;;;;;5095862;28;20068;-72
2024/01/22 07:41:51;;;;;;;80.17;35.67;;;-3.70;99.90;;;;;;5080939;28;20089;-73
2024/01/22 07:44:17;;;;;;;79.27;35.93;;;;;;;;;;5094623;28;20052;-72
2024/01/22 07:46:43;;;;;;;71.17;30.67;;;;;;;;;;5080094;28;20254;-71
2024/01/22 07:49:09;;;;;;;58.30;27.13;;;;;;;;;;5081957;28;20252;-71
2024/01/22 07:51:35;;;;;;;63.30;28.87;;;;;;;;;;5080917;28;20247;-71
2024/01/22 07:54:01;;;;;;;74.50;34.33;;;;;;;;;;5081985;28;20103;-71
2024/01/22 07:56:28;;;;;;;71.60;29.83;;;;;;;;;;5081871;28;20039;-71
2024/01/22 07:58:54;;;;;;;90.47;39.00;;;;;;;;;;5081757;28;20040;-70
2024/01/22 08:01:20;;;;;;;73.83;35.73;;;;;;;;;;5081851;28;20012;-71
2024/01/22 08:03:46;;;;;;;69.77;33.70;;;;;;;;;;5081540;28;20032;-71
2024/01/22 08:06:13;;;;;;;59.85;27.40;;;;;;;;;;5081658;28;20028;-71
2024/01/22 08:08:40;;;;;;;58.43;28.03;;;-2.50;98.40;;;;;;5081632;28;20030;-71
2024/01/22 08:11:06;;;;;;;54.03;23.33;;;-2.50;99.90;;;;;;5080915;28;20080;-71
2024/01/22 08:13:32;;;;;;;51.70;24.65;;;;;;;;;;5081411;28;20035;-71
2024/01/22 08:15:58;;;;;;;58.60;25.67;;;;;;;;;;5081504;28;20039;-71
2024/01/22 08:18:24;;;;;;;53.22;25.40;;;;;;;;;;5081292;28;20036;-71
2024/01/22 08:20:50;;;;;;;50.78;24.80;;;;;;;;;;5081428;28;20026;-71
2024/01/22 08:23:17;;;;;;;53.92;25.02;;;;;;;;;;5081337;28;20017;-71
2024/01/22 08:25:43;;;;;;;57.17;26.08;;;;;;;;;;5081245;28;20096;-71
2024/01/22 08:28:09;;;;;;;57.13;27.05;;;-1.30;99.90;;;;;;5081234;28;20025;-71
2024/01/22 08:30:35;;;;;;;57.67;25.35;;;;;;;;;;5081189;28;20024;-71
2024/01/22 08:33:01;;;;;;;56.33;27.27;;;;;;;;;;5081000;28;20035;-71
2024/01/22 08:35:27;;;;;;;61.97;26.42;;;;;;;;;;5079813;28;20035;-71
2024/01/22 08:37:53;;;;;;;52.22;24.10;;;;;;;;;;5096630;28;20074;-71
2024/01/22 08:40:23;;;;;;;53.47;24.92;;;-1.00;93.90;;;;;;5096435;28;20049;-70
2024/01/22 08:42:54;;;;;;;48.65;24.05;;;-1.10;98.10;;;;;;5080977;28;20039;-71
2024/01/22 08:45:21;;;;;;;45.05;23.50;;;-0.90;94.00;;;;;;5081200;28;20036;-70
2024/01/22 08:47:47;;;;;;;54.13;25.35;;;;;;;;;;5080539;28;20021;-71
2024/01/22 08:50:23;;;;;;;48.88;23.80;;;;;;;;;;5080962;28;20028;-73
2024/01/22 08:52:50;;;;;;;50.20;25.65;;;-0.60;93.10;;;;;;5080819;28;20024;-70
2024/01/22 08:55:18;;;;;;;59.33;27.90;;;-0.70;97.60;;;;;;5081094;28;20039;-72
2024/01/22 08:57:44;;;;;;;51.15;24.90;;;;;;;;;;5080660;28;20021;-70
2024/01/22 09:00:10;;;;;;;51.63;25.35;;;;;;;;;;5080806;28;20028;-71
2024/01/22 09:02:41;;;;;;;53.92;25.50;;;-0.30;92.30;;;;;;5080593;28;20074;-71
2024/01/22 09:05:07;;;;;;;50.08;22.55;;;-0.20;92.00;;;;;;5080745;28;20028;-70
2024/01/22 09:07:34;;;;;;;58.08;25.58;;;;;;;;;;5080663;28;20336;-70
2024/01/22 09:10:02;;;;;;;61.25;27.73;;;;;;;;;;5080453;28;20025;-70
2024/01/22 09:12:28;;;;;;;61.80;29.08;;;;;;;;;;5080732;28;20224;-71
2024/01/22 09:14:54;;;;;;;58.33;29.30;;;;;;;;;;5080453;28;20228;-71
2024/01/22 09:17:20;;;;;;;51.40;25.52;;;;;;;;;;5080803;28;20032;-71
2024/01/22 09:19:46;;;;;;;58.67;28.35;;;;;;;;;;5080369;28;20060;-71
2024/01/22 09:22:12;;;;;;;51.97;26.92;;;;;;;;;;5080573;28;20056;-71
2024/01/22 09:24:38;;;;;;;58.53;28.88;;;;;;;;;;5077094;28;20102;-72
2024/01/22 09:27:04;;;;;;;57.78;27.50;;;;;;;;;;5078401;28;20029;-71
2024/01/22 09:29:30;;;;;;;58.92;28.75;;;;;;;;;;5078982;28;20062;-71
2024/01/22 09:31:56;;;;;;;57.65;29.50;;;;;;;;;;5080699;28;20029;-72
2024/01/22 09:34:22;;;;;;;56.08;28.55;;;0.70;95.10;;;;;;5080585;28;20096;-71
2024/01/22 09:36:48;;;;;;;62.75;30.98;;;;;;;;;;5079109;28;20040;-71
2024/01/22 09:39:13;;;;;;;56.05;28.73;;;0.90;98.10;;;;;;5084703;28;20060;-71
2024/01/22 09:41:40;;;;;;;59.28;28.20;;;0.60;88.00;;;;;;5100583;28;20032;-71
2024/01/22 09:44:07;;;;;;;56.30;27.02;;;0.40;97.80;;;;;;5100633;28;20032;-71
2024/01/22 09:46:33;;;;;;;56.00;28.50;;;0.70;87.30;;;;;;5082213;28;20278;-72
2024/01/22 09:48:59;;;;;;;57.20;28.45;;;;;;;;;;5100446;28;20069;-71
2024/01/22 09:51:26;;;;;;;56.20;26.73;;;;;;;;;;5100608;28;20027;-71
2024/01/22 09:53:53;;;;;;;58.00;27.15;;;0.90;86.10;;;;;;5100462;28;20042;-72
2024/01/22 09:56:21;;;;;;;57.35;27.63;;;1.00;85.20;;;;;;5100563;28;20028;-71
2024/01/22 09:58:53;;;;;;;57.30;29.25;;;1.10;85.30;;;;;;5102098;28;20050;-71
2024/01/22 10:01:19;;;;;;;62.53;28.00;;;1.20;96.60;;;;;;5104216;28;20047;-70
2024/01/22 10:03:45;;;;;;;60.55;28.35;;;;;;;;;;5104209;28;20028;-70
2024/01/22 10:06:13;;;;;;;56.13;27.00;;;1.20;82.90;;;;;;5086219;28;20020;-71
2024/01/22 10:08:39;;;;;;;57.28;27.45;;;;;;;;;;5103958;28;20022;-70
2024/01/22 10:11:05;;;;;;;58.95;28.63;;;;;;;;;;5104302;28;20016;-71
2024/01/22 10:13:48;;;;;;;51.17;28.63;;;1.30;83.10;;;;;;5104098;28;20032;-71
2024/01/22 10:16:14;;;;;;;55.05;27.05;;;1.60;94.90;;;;;;5104102;28;20020;-70
2024/01/22 10:18:55;;;;;;;57.22;28.30;;;1.50;82.00;;;;;;5104180;28;20281;-71
2024/01/22 10:21:21;;;;;;;63.92;30.10;;;;;;;;;;5105366;28;20266;-74
2024/01/22 10:24:04;;;;;;;63.10;30.65;;;1.70;81.00;;;;;;5105777;28;20024;-73
2024/01/22 10:26:30;;;;;;;55.25;27.33;;;1.90;80.80;;;;;;5104264;28;20439;-73
2024/01/22 10:29:14;;;;;;;56.88;28.85;;;1.90;79.40;;;;;;5104578;28;20032;-73
2024/01/22 10:31:57;;;;;;;58.72;29.50;;;1.90;79.60;;;;;;5105041;28;20020;-80
2024/01/22 10:34:28;;;;;;;58.20;30.40;;;2.00;83.20;;;;;;5093254;28;20250;-77
2024/01/22 10:37:08;;;;;;;63.60;32.08;;;2.10;84.60;;;;;;5087693;28;20019;-74
2024/01/22 10:39:39;;;;;;;61.67;30.63;;;2.00;91.00;;;;;;5101559;28;20351;-73
2024/01/22 10:42:11;;;;;;;57.97;30.88;;;1.90;93.60;;;;;;5105416;28;20031;-74
2024/01/22 10:44:38;;;;;;;58.70;31.35;;;2.40;78.20;;;;;;5106864;28;20077;-80
2024/01/22 10:47:05;;;;;;;62.30;33.35;;;2.00;77.00;;;;;;5107639;28;20028;-80
2024/01/22 10:49:32;;;;;;;57.35;30.05;;;2.50;77.60;;;;;;5088962;28;20091;-79
2024/01/22 10:52:00;;;;;;;63.95;32.50;;;2.60;77.10;;;;;;5105756;28;20395;-80
2024/01/22 10:54:27;;;;;;;69.45;34.63;;;2.60;77.20;;;;;;5089276;28;20064;-80
2024/01/22 10:57:04;;;;;;;60.08;31.55;;;2.70;77.00;;;;;;5089638;28;20232;-80
2024/01/22 10:59:38;;;;;;;56.35;31.50;;;2.90;92.60;;;;;;5106546;28;20036;-81
2024/01/22 11:02:15;;;;;;;61.75;31.95;;;2.80;79.20;;;;;;5107302;28;20027;-79
2024/01/22 11:04:45;;;;;;;59.45;32.08;;;2.90;92.50;;;;;;5107901;28;20060;-81
2024/01/22 11:07:11;;;;;;;59.38;31.77;;;3.20;92.20;;;;;;5089891;28;20096;-81
2024/01/22 11:09:39;;;;;;;48.25;24.90;;;3.50;74.30;;;;;;5088836;28;20031;-79
2024/01/22 11:12:17;;;;;;;49.13;25.38;;;3.70;90.90;;;;;;5106572;28;20016;-84
2024/01/22 11:14:44;;;;;;;41.47;25.20;;;;;;;;;;5106435;28;20016;-80
2024/01/22 11:17:10;;;;;;;43.17;25.10;;;4.00;82.20;;;;;;5104929;28;20024;-80
2024/01/22 11:19:37;;;;;;;52.60;28.23;;;4.10;84.30;;;;;;5103960;28;20066;-81
2024/01/22 11:22:22;;;;;;;39.72;21.20;;;4.30;69.80;;;;;;5086070;28;20024;-81
2024/01/22 11:25:01;;;;;;;42.63;22.65;;;4.30;85.70;;;;;;5087007;28;20023;-80
2024/01/22 11:27:38;;;;;;;51.67;26.48;;;4.00;71.70;;;;;;5082951;28;20077;-82
2024/01/22 11:30:23;;;;;;;59.10;28.15;;;4.00;83.10;;;;;;5083669;28;20023;-80
2024/01/22 11:32:50;;;;;;;48.90;27.27;;;;;;;;;;5083597;28;20028;-79
2024/01/22 11:35:37;;;;;;;41.53;21.45;;;4.60;86.70;;;;;;5083218;28;20017;-78
2024/01/22 11:38:11;;;;;;;43.60;23.67;;;4.00;67.60;;;;;;5084291;28;20020;-79
2024/01/22 11:40:54;;;;;;;42.00;22.70;;;4.20;76.80;;;;;;5083552;28;20090;-82
2024/01/22 11:43:21;;;;;;;45.25;22.92;;;4.00;69.30;;;;;;5080820;28;20042;-81
2024/01/22 11:45:51;;;;;;;41.45;23.85;;;4.30;67.20;;;;;;5084711;28;20024;-81
2024/01/22 11:48:24;;;;;;;43.55;24.73;;;4.20;85.10;;;;;;5062481;28;20100;-82
2024/01/22 11:50:58;;;;;;;46.63;25.65;;;3.50;66.30;;;;;;5092413;28;20025;-82
2024/01/22 11:53:25;;;;;;;44.30;24.55;;;4.60;69.80;;;;;;5082118;28;20028;-79
2024/01/22 11:56:06;;;;;;;41.00;22.67;;;4.80;66.60;;;;;;5086567;28;20024;-78
2024/01/22 11:58:33;;;;;;;40.67;23.75;;;4.70;65.40;;;;;;5103149;28;20039;-80
2024/01/22 12:01:00;;;;;;;41.63;22.88;;;4.70;65.00;;;;;;5104437;28;20035;-79
2024/01/22 12:03:28;;;;;;;40.80;22.35;;;4.80;64.30;;;;;;5104677;28;20233;-79
2024/01/22 12:06:00;;;;;;;39.83;21.92;;;4.80;64.10;;;;;;5086281;28;20028;-81
2024/01/22 12:08:27;;;;;;;41.72;25.02;;;;;;;;;;5104409;28;20045;-78
2024/01/22 12:10:56;;;;;;;40.90;23.38;;;;;;;;;;5102735;28;20016;-74
2024/01/22 12:13:23;;;;;;;40.00;23.67;;;;;;;;;;5102405;28;20020;-73
2024/01/22 12:15:55;;;;;;;41.28;22.77;;;4.70;63.80;;;;;;5102791;28;20019;-75
2024/01/22 12:18:24;;;;;;;40.65;23.60;;;4.70;64.20;;;;;;5102708;28;20035;-74
2024/01/22 12:20:50;;;;;;;37.78;22.70;;;;;;;;;;5103435;28;20201;-76
2024/01/22 12:23:29;;;;;;;42.78;22.38;;;5.00;63.70;;;;;;5103100;28;20340;-75
2024/01/22 12:25:56;;;;;;;40.55;23.02;;;5.00;69.00;;;;;;5102446;28;20020;-73
2024/01/22 12:28:23;;;;;;;40.85;22.88;;;;;;;;;;5103005;28;20024;-74
2024/01/22 12:31:00;;;;;;;45.17;24.30;;;5.30;62.90;;;;;;5103047;28;20070;-74
2024/01/22 12:33:27;;;;;;;43.10;24.52;;;5.30;62.50;;;;;;5101828;28;20035;-74
2024/01/22 12:36:09;;;;;;;47.88;26.58;;;5.10;79.70;;;;;;5083615;28;20019;-73
2024/01/22 12:38:50;;;;;;;46.67;25.83;;;4.80;62.20;;;;;;5103156;28;20226;-75
2024/01/22 12:41:16;;;;;;;47.15;26.70;;;5.10;62.70;;;;;;5084393;28;20062;-77
2024/01/22 12:43:42;;;;;;;46.50;25.55;;;4.90;73.30;;;;;;5103089;28;20055;-78
2024/01/22 12:46:15;;;;;;;55.00;26.17;;;5.60;68.10;;;;;;5103132;28;20026;-75
2024/01/22 12:48:41;;;;;;;46.88;26.38;;;;;;;;;;5103593;28;20031;-74
2024/01/22 12:51:08;;;;;;;50.33;26.58;;;4.90;77.00;;;;;;5103209;28;20062;-75
2024/01/22 12:53:34;;;;;;;49.40;26.55;;;;;;;;;;5103020;28;20311;-77
2024/01/22 12:56:01;;;;;;;50.90;27.75;;;5.00;62.90;;;;;;5103598;28;20065;-74
2024/01/22 12:58:28;;;;;;;58.00;30.90;;;4.80;69.20;;;;;;5103103;28;20143;-74
2024/01/22 13:00:54;;;;;;;47.83;26.45;;;4.90;70.80;;;;;;5085435;28;20024;-75
2024/01/22 13:03:20;;;;;;;50.45;27.40;;;4.90;63.20;;;;;;5103498;28;20095;-75
2024/01/22 13:05:46;;;;;;;49.55;26.80;;;;;;;;;;5103516;28;20077;-75
2024/01/22 13:08:12;;;;;;;50.47;26.90;;;4.90;81.10;;;;;;5102847;28;20012;-74
2024/01/22 13:10:38;;;;;;;50.70;28.38;;;;;;;;;;5103763;28;20372;-74
2024/01/22 13:13:05;;;;;;;50.67;27.58;;;5.10;62.50;;;;;;5103769;28;20020;-75
2024/01/22 13:15:31;;;;;;;54.10;30.13;;;5.00;68.60;;;;;;5085152;28;20095;-75
2024/01/22 13:17:59;;;;;;;57.80;30.38;;;5.10;61.70;;;;;;5103767;28;20020;-77
2024/01/22 13:20:24;;;;;;;50.63;29.27;;;5.10;79.30;;;;;;5103995;28;20027;-75
2024/01/22 13:22:50;;;;;;;55.13;28.38;;;;;;;;;;5104595;28;20034;-77
2024/01/22 13:25:20;;;;;;;49.30;29.58;;;6.20;77.40;;;;;;5104101;28;20028;-77
2024/01/22 13:27:46;;;;;;;53.60;29.08;;;6.10;59.50;;;;;;5085482;28;20031;-77
2024/01/22 13:30:12;;;;;;;48.70;29.65;;;6.40;76.70;;;;;;5085583;28;20023;-76
2024/01/22 13:32:38;;;;;;;49.13;26.90;;;6.30;71.30;;;;;;5076936;28;20295;-77
2024/01/22 13:35:05;;;;;;;55.90;28.40;;;6.70;58.60;;;;;;5100642;28;20025;-77
2024/01/22 13:37:31;;;;;;;53.85;27.63;;;7.00;71.80;;;;;;5087789;28;20021;-77